HIDDEN DAM (HENSLEY) (HID)

Elevation: 561' · FRESNO R basin · Operator: US Army Corps of Engineers

Provisional data, subject to change.
Query executed Friday at 2:47:33   clock

Select a sensor type for a plot of data.
Note: Reservoir Flows are daily averages.

Earlier

Date RES ELE    STORAGE    RES CHG    TOC STO    ABV TOC    OUTFLOW    INFLOW    PPT INC    TEMP MN    TEMP MX    WINDLEN    EVP PAN   
 FEET   AF   AF   AF   AF   CFS   CFS   INCHES   DEG F   DEG F   MILES   INCHES  
06/02/2016 506.14 44691 -302 90000 -45309 171 32 0.00 21 39 119 0.40
06/03/2016 505.87 44389 -302 90000 -45611 181 42 0.00 20 39 123 0.39
06/04/2016 505.60 44089 -300 90000 -45911 175 37 0.00 23 40 122 0.38
06/05/2016 505.33 43789 -300 90000 -46211 164 26 0.00 20 39 124 0.39
06/06/2016 505.07 43502 -287 90000 -46498 164 32 0.00 19 38 113 0.37
06/07/2016 504.80 43204 -298 90000 -46796 165 27 0.00 19 38 122 0.38
06/08/2016 504.52 42897 -307 90000 -47103 166 22 0.00 17 35 111 0.34
06/09/2016 504.24 42591 -306 90000 -47409 165 22 0.00 13 34 108 0.34
06/10/2016 503.93 42253 -338 90000 -47747 169 7 0.00 16 31 112 0.27
06/11/2016 503.65 41949 -304 90000 -48051 171 25 0.02 16 31 93 0.25
06/12/2016 503.34 41614 -335 90000 -48386 164 4 0.12 15 31 101 0.27
06/13/2016 503.07 41324 -290 90000 -48676 164 29 0.00 15 32 120 0.34
06/14/2016 502.78 41012 -312 90000 -48988 161 14 0.01 12 29 129 0.33
06/15/2016 502.50 40713 -299 90000 -49287 156 15 0.00 11 25 146 0.31
06/16/2016 502.24 40437 -276 90000 -49563 156 26 0.00 10 27 102 0.29
06/17/2016 501.96 40140 -297 90000 -49860 155 15 0.01 14 32 95 0.32
06/18/2016 501.75 39918 -222 90000 -50082 151 49 0.00 15 31 126 0.33
06/19/2016 501.49 39644 -274 90000 -50356 145 18 0.00 15 36 103 0.35
06/20/2016 501.24 39381 -263 90000 -50619 145 24 0.00 19 38 115 0.38
06/21/2016 500.97 39099 -282 90000 -50901 148 18 0.00 20 39 113 0.39
06/22/2016 500.68 38797 -302 90000 -51203 158 19 0.00 20 39 130 0.42
06/23/2016 500.36 38465 -332 90000 -51535 165 10 0.00 18 37 135 0.41
06/24/2016 500.04 38135 -330 90000 -51865 165 11 0.00 17 35 139 0.39
06/25/2016 499.72 37806 -329 90000 -52194 166 11 0.00 18 37 114 0.38
06/26/2016 499.38 37458 -348 90000 -52542 169 7 0.00 21 39 133 0.41
06/27/2016 499.03 37102 -356 -- -- 176 10 0.00 22 41 138 0.42
06/28/2016 498.69 36758 -344 -- -- 176 15 0.00 24 42 117 0.40
06/29/2016 498.34 36405 -353 -- -- 170 5 0.00 24 41 116 0.41
06/30/2016 -- -- -- -- -- -- -- -- -- -- -- --
07/01/2016 -- -- -- -- -- -- -- -- -- -- -- --

Later | Latest

Warning! This data is preliminary and subject to revision.

Show HID Map | Plot HID Data | 1 Month HID Data | Real-Time HID Data | HID Info